createdAt,value
2018-12-03T17:12:01.400Z,9.60
2018-12-03T17:14:23.655Z,12.00
2018-12-03T17:16:45.879Z,11.90
2018-12-03T17:19:08.175Z,11.90
2018-12-03T17:22:43.352Z,11.90
2018-12-03T17:25:10.117Z,11.90
2018-12-03T17:27:32.369Z,11.90
2018-12-03T17:29:54.623Z,11.90
2018-12-03T17:32:16.917Z,11.90
2018-12-03T17:34:39.149Z,11.90
2018-12-03T17:37:01.445Z,11.90
2018-12-03T17:39:23.735Z,11.90
2018-12-03T17:41:46.586Z,11.90
2018-12-03T17:44:08.856Z,11.90
2018-12-03T17:46:31.076Z,11.90
2018-12-03T17:48:53.333Z,11.90
2018-12-03T17:51:15.590Z,11.90
2018-12-03T17:53:37.807Z,11.90
2018-12-03T17:56:00.039Z,11.90
2018-12-03T17:58:22.303Z,11.90
2018-12-03T18:00:44.539Z,11.90
2018-12-03T18:03:08.250Z,11.90
2018-12-03T18:05:30.607Z,11.80
2018-12-03T18:07:52.853Z,11.80
2018-12-03T18:10:15.592Z,11.80
2018-12-03T18:12:37.349Z,11.80
2018-12-03T18:14:59.656Z,11.80
2018-12-03T18:17:21.949Z,11.80
2018-12-03T18:19:44.221Z,11.70
2018-12-03T18:22:06.796Z,11.70
2018-12-03T18:24:29.196Z,11.70
2018-12-03T18:26:52.343Z,11.70
2018-12-03T18:29:15.000Z,11.70
2018-12-03T18:31:37.327Z,11.70
2018-12-03T18:33:59.991Z,11.70
2018-12-03T18:36:22.267Z,11.70
2018-12-03T18:38:44.540Z,11.60
2018-12-03T18:41:07.260Z,11.60
2018-12-03T18:43:29.887Z,11.60
2018-12-03T18:45:52.626Z,11.60
2018-12-03T18:48:15.950Z,11.70
2018-12-03T18:50:40.544Z,11.70
2018-12-03T18:53:21.406Z,11.70
2018-12-03T18:55:43.618Z,11.70
2018-12-03T18:58:06.023Z,11.70
2018-12-03T19:00:28.379Z,11.70
2018-12-03T19:02:50.679Z,11.70
2018-12-03T19:05:12.921Z,11.70
2018-12-03T19:07:35.183Z,11.70
2018-12-03T19:09:57.467Z,11.70
2018-12-03T19:12:19.722Z,11.70
2018-12-03T19:14:42.013Z,11.70
2018-12-03T19:17:04.295Z,11.70
2018-12-03T19:19:26.592Z,11.60
2018-12-03T19:21:48.916Z,11.60
2018-12-03T19:24:11.183Z,11.60
2018-12-03T19:26:33.396Z,11.60
2018-12-03T19:28:55.604Z,11.60
2018-12-03T19:31:17.835Z,11.60
2018-12-03T19:33:40.075Z,11.60
2018-12-03T19:36:03.117Z,11.50
2018-12-03T19:38:25.395Z,11.50
2018-12-03T19:40:47.624Z,11.50
2018-12-03T19:43:10.231Z,11.50
2018-12-03T19:45:32.505Z,11.50
2018-12-03T19:47:54.715Z,11.50
2018-12-03T19:50:16.937Z,11.50
2018-12-03T19:52:40.331Z,11.60
2018-12-03T19:55:04.388Z,11.60
2018-12-03T19:57:29.842Z,11.50
2018-12-03T19:59:53.781Z,11.60
2018-12-03T20:02:16.032Z,11.60
2018-12-03T20:04:44.062Z,11.60
2018-12-03T20:07:06.314Z,11.60
2018-12-03T20:09:28.551Z,11.70
2018-12-03T20:11:50.836Z,11.80
2018-12-03T20:14:13.064Z,11.90
2018-12-03T20:16:35.300Z,11.90
2018-12-03T20:18:57.533Z,12.00
2018-12-03T20:21:22.779Z,11.90
2018-12-03T20:23:49.055Z,11.90
2018-12-03T20:26:15.872Z,11.90
2018-12-03T20:28:53.116Z,11.90
2018-12-03T20:31:36.569Z,11.90
2018-12-03T20:34:11.056Z,11.80
2018-12-03T20:36:52.582Z,11.70
2018-12-03T20:41:33.202Z,11.50
2018-12-03T20:43:58.815Z,11.40
2018-12-03T20:46:28.240Z,11.20
2018-12-03T20:49:08.818Z,11.10
2018-12-03T20:51:35.144Z,11.10
2018-12-03T20:53:57.397Z,11.00
2018-12-03T20:56:19.667Z,11.00
2018-12-03T20:58:41.962Z,10.90
2018-12-03T21:01:04.216Z,10.90
2018-12-03T21:03:26.463Z,10.90
2018-12-03T21:05:48.711Z,10.80
2018-12-03T21:08:10.901Z,10.70
2018-12-03T21:10:33.124Z,10.70
2018-12-03T21:12:55.325Z,10.70
2018-12-03T21:15:17.518Z,10.70
2018-12-03T21:17:39.744Z,10.60
2018-12-03T21:20:12.636Z,10.60
2018-12-03T21:22:34.893Z,10.60
2018-12-03T21:24:57.184Z,10.60
2018-12-03T21:27:19.421Z,10.60
2018-12-03T21:29:41.610Z,10.50
2018-12-03T21:32:03.875Z,10.50
2018-12-03T21:34:26.139Z,10.50
2018-12-03T21:36:48.348Z,10.50
2018-12-03T21:39:10.599Z,10.50
2018-12-03T21:41:32.834Z,10.50
2018-12-03T21:43:55.047Z,10.50
2018-12-03T21:46:17.279Z,10.50
2018-12-03T21:48:39.492Z,10.50
2018-12-03T21:51:01.730Z,10.50
2018-12-03T21:53:23.962Z,10.50
2018-12-03T21:55:46.262Z,10.50
2018-12-03T21:58:08.459Z,10.40
2018-12-03T22:00:30.680Z,10.40
2018-12-03T22:02:52.952Z,10.40
2018-12-03T22:05:15.203Z,10.40
2018-12-03T22:07:37.530Z,10.40
2018-12-03T22:09:59.793Z,10.30
2018-12-03T22:12:22.068Z,10.30
2018-12-03T22:14:44.306Z,10.30
2018-12-03T22:17:06.529Z,10.30
2018-12-03T22:19:28.756Z,10.30
2018-12-03T22:21:50.988Z,10.20
2018-12-03T22:24:13.203Z,10.20
2018-12-03T22:26:35.467Z,10.10
2018-12-03T22:28:57.669Z,10.10
2018-12-03T22:31:19.939Z,10.10
2018-12-03T22:33:42.192Z,10.00
2018-12-03T22:36:04.485Z,10.00
2018-12-03T22:38:26.733Z,10.00
2018-12-03T22:40:48.950Z,10.00
2018-12-03T22:43:11.175Z,9.90
2018-12-03T22:45:33.377Z,9.90
2018-12-03T22:47:55.641Z,9.90
2018-12-03T22:50:17.875Z,9.90
2018-12-03T22:52:40.092Z,9.90
2018-12-03T22:55:02.316Z,9.90
2018-12-03T22:57:24.574Z,9.90
2018-12-03T22:59:46.841Z,9.90
2018-12-03T23:02:09.074Z,9.90
2018-12-03T23:04:31.851Z,9.90
2018-12-03T23:06:54.063Z,9.80
2018-12-03T23:09:16.274Z,9.80
2018-12-03T23:11:38.539Z,9.80
2018-12-03T23:14:00.746Z,9.80
2018-12-03T23:16:23.020Z,9.80
2018-12-03T23:18:45.307Z,9.70
2018-12-03T23:21:07.547Z,9.80
2018-12-03T23:23:29.819Z,9.70
2018-12-03T23:25:52.077Z,9.70
2018-12-03T23:28:14.288Z,9.60
2018-12-03T23:30:36.528Z,9.60
2018-12-03T23:32:58.734Z,9.60
2018-12-03T23:35:20.963Z,9.60
2018-12-03T23:37:43.203Z,9.60
2018-12-03T23:40:05.483Z,9.60
2018-12-03T23:42:27.764Z,9.60
2018-12-03T23:44:50.091Z,9.60
2018-12-03T23:47:12.374Z,9.50
2018-12-03T23:49:34.624Z,9.50
2018-12-03T23:51:56.892Z,9.50
2018-12-03T23:54:19.142Z,9.50
2018-12-03T23:56:41.355Z,9.50
2018-12-03T23:59:03.623Z,9.50
